Time;durP1;ratioP1;P1;durP2;ratioP2;P2;SDS_P1;SDS_P2;PMS_P1;PMS_P2;Temp;Humidity;BMP_temperature;BMP_pressure;BME280_temperature;BME280_humidity;BME280_pressure;Samples;Min_cycle;Max_cycle;Signal;HPM_P1;HPM_P2
2022/06/29 00:00:17;;;;;;;3.88;1.45;;;21.50;84.70;;;;;;5124840;28;20037;-87
2022/06/29 00:02:44;;;;;;;3.50;1.30;;;21.50;84.50;;;;;;5108067;28;20033;-87
2022/06/29 00:05:13;;;;;;;4.00;1.40;;;21.40;84.80;;;;;;5121735;28;20022;-87
2022/06/29 00:07:39;;;;;;;4.72;1.58;;;21.40;85.20;;;;;;5051567;28;20070;-87
2022/06/29 00:10:06;;;;;;;4.07;1.65;;;21.40;85.10;;;;;;5032404;28;20038;-86
2022/06/29 00:12:32;;;;;;;3.33;1.38;;;21.40;84.90;;;;;;5030610;28;20029;-87
2022/06/29 00:14:57;;;;;;;4.60;1.80;;;21.40;85.00;;;;;;5116126;27;20028;-87
2022/06/29 00:17:23;;;;;;;2.97;1.55;;;21.30;85.30;;;;;;5078834;28;20055;-86
2022/06/29 00:19:50;;;;;;;8.02;2.22;;;21.30;85.40;;;;;;5100062;28;20037;-86
2022/06/29 00:22:16;;;;;;;3.88;1.90;;;21.30;85.20;;;;;;5032242;28;20021;-86
2022/06/29 00:24:42;;;;;;;4.80;1.60;;;21.30;85.60;;;;;;5100343;28;20029;-86
2022/06/29 00:27:08;;;;;;;5.00;1.98;;;21.20;85.60;;;;;;5031680;28;20039;-86
2022/06/29 00:29:34;;;;;;;3.22;1.63;;;21.20;85.40;;;;;;5082732;28;20036;-86
2022/06/29 00:31:59;;;;;;;4.15;1.60;;;21.20;85.70;;;;;;5099457;28;20024;-86
2022/06/29 00:34:25;;;;;;;3.33;1.67;;;21.20;86.00;;;;;;5031202;28;20427;-86
2022/06/29 00:36:50;;;;;;;6.55;1.80;;;21.10;86.10;;;;;;5099743;28;20025;-87
2022/06/29 00:39:16;;;;;;;4.13;1.80;;;21.10;86.40;;;;;;5116740;27;20044;-86
2022/06/29 00:41:44;;;;;;;4.65;1.88;;;21.10;86.60;;;;;;5135835;27;20023;-85
2022/06/29 00:44:18;;;;;;;3.90;1.73;;;21.00;86.90;;;;;;5133966;27;20031;-86
2022/06/29 00:46:47;;;;;;;4.35;1.42;;;21.00;87.20;;;;;;5121858;27;20030;-86
2022/06/29 00:49:15;;;;;;;4.43;2.10;;;21.00;87.30;;;;;;5118314;27;20019;-86
2022/06/29 00:51:45;;;;;;;4.78;1.90;;;21.00;87.40;;;;;;5105482;27;20024;-86
2022/06/29 00:54:17;;;;;;;5.55;2.10;;;21.00;87.50;;;;;;5134951;27;20015;-85
2022/06/29 00:56:43;;;;;;;5.18;1.83;;;20.90;87.10;;;;;;5116600;27;20455;-86
2022/06/29 00:59:12;;;;;;;7.32;2.03;;;20.90;87.20;;;;;;5099734;27;20106;-86
2022/06/29 01:01:38;;;;;;;4.28;2.00;;;20.80;87.50;;;;;;5116479;27;20066;-86
2022/06/29 01:04:04;;;;;;;5.05;2.30;;;20.90;87.60;;;;;;5103560;28;20039;-86
2022/06/29 01:06:30;;;;;;;4.13;1.90;;;20.80;87.10;;;;;;5113744;28;20034;-85
2022/06/29 01:08:56;;;;;;;5.40;1.80;;;20.80;87.00;;;;;;5136989;27;20031;-86
2022/06/29 01:11:21;;;;;;;5.80;1.83;;;20.80;87.20;;;;;;5115831;27;20019;-86
2022/06/29 01:13:48;;;;;;;4.13;1.90;;;20.70;87.50;;;;;;5102987;27;20428;-86
2022/06/29 01:16:13;;;;;;;5.00;2.05;;;20.70;87.20;;;;;;5134752;27;20038;-86
2022/06/29 01:18:39;;;;;;;4.90;2.33;;;20.70;87.40;;;;;;5095966;28;20359;-86
2022/06/29 01:21:08;;;;;;;5.57;2.28;;;20.60;87.70;;;;;;5125311;27;20019;-86
2022/06/29 01:23:34;;;;;;;3.72;1.92;;;20.60;87.70;;;;;;5115814;27;20570;-86
2022/06/29 01:26:07;;;;;;;10.57;2.25;;;20.60;88.00;;;;;;5116388;27;20130;-86
2022/06/29 01:28:33;;;;;;;9.55;2.50;;;20.60;88.20;;;;;;5116051;27;20103;-87
2022/06/29 01:30:59;;;;;;;3.80;1.98;;;20.50;88.40;;;;;;5116153;27;20054;-86
2022/06/29 01:33:25;;;;;;;5.57;1.92;;;20.50;88.70;;;;;;5126644;27;20025;-86
2022/06/29 01:35:51;;;;;;;4.38;2.03;;;20.50;89.10;;;;;;5105777;27;20484;-86
2022/06/29 01:38:19;;;;;;;4.25;1.92;;;20.50;89.10;;;;;;5115698;27;20050;-86
2022/06/29 01:40:45;;;;;;;4.30;2.00;;;20.40;89.20;;;;;;5133911;27;20071;-86
2022/06/29 01:43:11;;;;;;;3.63;1.90;;;20.40;89.20;;;;;;5098776;27;20494;-86
2022/06/29 01:45:36;;;;;;;7.18;2.10;;;20.40;89.40;;;;;;5118568;27;20382;-86
2022/06/29 01:48:02;;;;;;;5.53;2.10;;;20.30;89.50;;;;;;5115802;27;20019;-86
2022/06/29 01:50:28;;;;;;;5.63;2.20;;;20.30;89.70;;;;;;5119567;27;20114;-86
2022/06/29 01:52:54;;;;;;;3.92;2.03;;;20.30;89.70;;;;;;5116317;28;20039;-85
2022/06/29 01:55:19;;;;;;;4.95;2.50;;;20.30;89.50;;;;;;5132810;27;20031;-86
2022/06/29 01:57:45;;;;;;;4.72;2.42;;;20.30;89.50;;;;;;5134301;27;20027;-86
2022/06/29 02:00:11;;;;;;;5.43;2.20;;;20.20;89.60;;;;;;5132977;27;20106;-86
2022/06/29 02:02:38;;;;;;;4.38;2.35;;;20.20;89.80;;;;;;5115862;28;20034;-86
2022/06/29 02:05:03;;;;;;;4.40;2.00;;;20.20;89.90;;;;;;5134144;28;20028;-86
2022/06/29 02:07:31;;;;;;;6.70;2.42;;;20.10;89.80;;;;;;5105766;28;20467;-85
2022/06/29 02:09:57;;;;;;;4.22;2.38;;;20.10;90.00;;;;;;5115240;28;20031;-86
2022/06/29 02:12:23;;;;;;;5.43;2.20;;;20.10;90.10;;;;;;5115928;28;20028;-86
2022/06/29 02:14:48;;;;;;;4.95;2.10;;;20.10;90.20;;;;;;5134186;28;20027;-86
2022/06/29 02:17:14;;;;;;;5.30;2.53;;;20.10;90.20;;;;;;5115676;28;20431;-87
2022/06/29 02:19:39;;;;;;;8.23;2.80;;;20.00;90.20;;;;;;5098993;28;20031;-86
2022/06/29 02:22:05;;;;;;;6.15;2.58;;;20.00;90.10;;;;;;5132561;28;20031;-86
2022/06/29 02:24:31;;;;;;;4.78;2.63;;;19.90;90.10;;;;;;5088415;28;20468;-86
2022/06/29 02:26:57;;;;;;;5.20;2.50;;;19.90;90.10;;;;;;5128326;28;20020;-86
2022/06/29 02:29:25;;;;;;;6.45;2.30;;;19.90;90.30;;;;;;5098511;28;20113;-86
2022/06/29 02:34:44;;;;;;;5.75;2.33;;;19.80;90.50;;;;;;5136270;27;20088;-85
2022/06/29 02:37:11;;;;;;;7.03;2.75;;;19.80;91.20;;;;;;5134477;27;20096;-85
2022/06/29 02:39:36;;;;;;;4.25;2.70;;;19.80;92.30;;;;;;5124400;27;20054;-85
2022/06/29 02:42:02;;;;;;;6.05;2.55;;;19.80;92.80;;;;;;5118505;27;20110;-85
2022/06/29 02:44:28;;;;;;;6.72;2.70;;;19.70;93.20;;;;;;5102037;27;20076;-86
2022/06/29 02:46:54;;;;;;;5.57;2.90;;;19.70;93.50;;;;;;5136533;27;20019;-85
2022/06/29 02:49:19;;;;;;;4.63;2.83;;;19.70;93.70;;;;;;5119097;27;20427;-86
2022/06/29 02:51:45;;;;;;;5.38;2.83;;;19.70;94.00;;;;;;5119569;27;20027;-86
2022/06/29 02:54:11;;;;;;;4.72;2.75;;;19.60;94.40;;;;;;5136376;27;20027;-85
2022/06/29 02:56:36;;;;;;;5.40;2.67;;;19.60;94.80;;;;;;5134731;27;20145;-86
2022/06/29 02:59:02;;;;;;;5.80;2.90;;;19.50;96.50;;;;;;5098060;28;20383;-86
2022/06/29 03:01:28;;;;;;;5.22;2.78;;;19.50;98.20;;;;;;5126177;27;20027;-86
2022/06/29 03:03:54;;;;;;;3.53;2.50;;;19.50;99.10;;;;;;5119210;27;20487;-86
2022/06/29 03:06:19;;;;;;;6.30;2.88;;;19.50;99.10;;;;;;5136025;27;20027;-86
2022/06/29 03:08:45;;;;;;;5.80;2.97;;;19.50;98.80;;;;;;5136132;27;20122;-86
2022/06/29 03:11:11;;;;;;;8.65;2.67;;;19.40;98.00;;;;;;5105757;28;20028;-86
2022/06/29 03:13:37;;;;;;;4.43;2.70;;;19.40;97.70;;;;;;5120264;27;20016;-86
2022/06/29 03:16:03;;;;;;;5.72;2.47;;;19.40;97.50;;;;;;5137282;27;20098;-85
2022/06/29 03:18:29;;;;;;;5.38;2.85;;;19.40;97.30;;;;;;5101077;27;20117;-86
2022/06/29 03:20:55;;;;;;;4.32;2.55;;;19.30;97.10;;;;;;5135982;27;20047;-86
2022/06/29 03:23:21;;;;;;;4.70;2.80;;;19.30;96.90;;;;;;5118206;27;20051;-86
2022/06/29 03:25:47;;;;;;;4.72;2.72;;;19.30;97.00;;;;;;5118761;27;20439;-85
2022/06/29 03:28:12;;;;;;;5.25;2.60;;;19.30;97.00;;;;;;5136917;27;20054;-85
2022/06/29 03:30:38;;;;;;;7.00;2.50;;;19.20;97.00;;;;;;5101219;27;20379;-86
2022/06/29 03:33:04;;;;;;;4.68;2.80;;;19.20;97.10;;;;;;5118528;27;20436;-86
2022/06/29 03:35:33;;;;;;;3.47;2.75;;;19.20;97.10;;;;;;5151576;27;20072;-87
2022/06/29 03:37:58;;;;;;;5.30;2.75;;;19.20;97.10;;;;;;5141862;27;20029;-87
2022/06/29 03:40:27;;;;;;;4.88;2.70;;;19.20;97.00;;;;;;5143082;27;20110;-87
2022/06/29 03:42:54;;;;;;;5.75;2.80;;;19.20;97.00;;;;;;5161549;27;20027;-87
2022/06/29 03:45:20;;;;;;;5.85;2.83;;;19.10;97.00;;;;;;5157307;27;20039;-87
2022/06/29 03:47:45;;;;;;;6.65;3.17;;;19.10;97.10;;;;;;5123503;27;20024;-86
2022/06/29 03:50:11;;;;;;;6.32;2.80;;;19.10;97.20;;;;;;5141351;27;20058;-86
2022/06/29 03:52:37;;;;;;;6.22;3.28;;;19.10;97.10;;;;;;5147243;27;20028;-86
2022/06/29 03:55:03;;;;;;;3.53;2.80;;;19.10;97.20;;;;;;5118827;27;20027;-86
2022/06/29 03:57:29;;;;;;;4.97;3.05;;;19.00;97.30;;;;;;5117899;27;20023;-86
2022/06/29 03:59:55;;;;;;;6.07;3.03;;;19.00;97.30;;;;;;5135538;27;20031;-86
2022/06/29 04:02:20;;;;;;;6.97;2.97;;;19.00;97.30;;;;;;5135540;27;20035;-87
2022/06/29 04:04:46;;;;;;;5.88;3.03;;;19.00;97.30;;;;;;5100770;27;20070;-86
2022/06/29 04:07:11;;;;;;;3.95;2.65;;;19.00;97.30;;;;;;5136725;27;20029;-86
2022/06/29 04:09:37;;;;;;;4.75;2.70;;;19.00;97.40;;;;;;5135396;27;20160;-86
2022/06/29 04:12:03;;;;;;;4.97;3.10;;;19.00;97.40;;;;;;5134801;27;20497;-86
2022/06/29 04:14:31;;;;;;;5.65;3.33;;;19.00;97.50;;;;;;5117761;27;20050;-86
2022/06/29 04:16:58;;;;;;;6.80;2.83;;;18.90;97.50;;;;;;5127812;27;20177;-86
2022/06/29 04:19:24;;;;;;;5.72;2.92;;;18.90;97.50;;;;;;5110220;27;20027;-86
2022/06/29 04:21:50;;;;;;;5.00;2.75;;;18.90;97.50;;;;;;5117550;27;20034;-86
2022/06/29 04:24:17;;;;;;;5.55;3.05;;;18.90;97.60;;;;;;5135203;27;20460;-86
2022/06/29 04:26:43;;;;;;;4.28;3.13;;;18.90;97.60;;;;;;5134491;27;20023;-86
2022/06/29 04:29:09;;;;;;;4.95;3.28;;;18.90;97.50;;;;;;5117473;27;20049;-86
2022/06/29 04:31:35;;;;;;;5.50;3.20;;;18.90;97.70;;;;;;5135578;27;20027;-86
2022/06/29 04:34:01;;;;;;;5.32;3.33;;;18.90;97.70;;;;;;5110186;28;20055;-86
2022/06/29 04:36:28;;;;;;;7.40;3.55;;;18.90;97.80;;;;;;5110261;27;20026;-87
2022/06/29 04:38:54;;;;;;;5.53;3.08;;;18.90;97.90;;;;;;5135491;27;20019;-86
2022/06/29 04:41:21;;;;;;;4.40;2.90;;;18.90;98.00;;;;;;5117283;27;20023;-85
2022/06/29 04:43:48;;;;;;;4.93;2.92;;;18.90;98.00;;;;;;5116877;27;20529;-86
2022/06/29 04:46:19;;;;;;;4.18;3.08;;;18.90;98.10;;;;;;5117196;27;20043;-86
2022/06/29 04:48:53;;;;;;;6.75;3.95;;;18.90;98.10;;;;;;5116482;27;20059;-86
2022/06/29 04:51:19;;;;;;;8.70;3.47;;;18.80;98.10;;;;;;5134382;27;20030;-86
2022/06/29 04:53:45;;;;;;;5.72;3.08;;;18.90;98.20;;;;;;5097437;27;20036;-86
2022/06/29 04:56:12;;;;;;;6.63;3.30;;;18.90;98.40;;;;;;5099996;27;20031;-87
2022/06/29 04:58:37;;;;;;;5.78;3.22;;;18.80;98.50;;;;;;5133280;27;20030;-87
2022/06/29 05:01:03;;;;;;;8.05;3.45;;;18.90;98.70;;;;;;5113201;28;20027;-86
2022/06/29 05:03:29;;;;;;;8.25;3.38;;;18.90;98.80;;;;;;5100083;28;20020;-86
2022/06/29 05:05:54;;;;;;;9.00;3.17;;;18.90;98.90;;;;;;5108970;27;20041;-87
2022/06/29 05:08:20;;;;;;;7.00;3.42;;;18.90;98.90;;;;;;5105803;28;20107;-84
2022/06/29 05:10:46;;;;;;;6.53;3.90;;;18.90;99.00;;;;;;5113131;27;20032;-87
2022/06/29 05:13:11;;;;;;;5.95;3.33;;;18.90;99.10;;;;;;5124913;27;20106;-86
2022/06/29 05:15:38;;;;;;;10.45;4.18;;;18.90;99.30;;;;;;5115695;27;20070;-86
2022/06/29 05:18:07;;;;;;;6.45;4.10;;;18.90;99.40;;;;;;5117220;27;20026;-86
2022/06/29 05:20:33;;;;;;;7.13;4.25;;;18.90;99.60;;;;;;5130736;27;20041;-86
2022/06/29 05:22:59;;;;;;;5.57;3.75;;;18.90;99.70;;;;;;5122144;27;20060;-87
2022/06/29 05:25:25;;;;;;;4.00;3.10;;;18.90;99.70;;;;;;5117685;27;20020;-87
2022/06/29 05:27:51;;;;;;;6.10;3.58;;;18.90;99.70;;;;;;5108159;27;20019;-87
2022/06/29 05:30:16;;;;;;;7.45;4.00;;;18.90;99.90;;;;;;5121528;27;20098;-86
2022/06/29 05:32:43;;;;;;;7.00;3.80;;;18.90;99.90;;;;;;5122815;27;20015;-87
2022/06/29 05:35:09;;;;;;;5.63;3.47;;;19.00;99.90;;;;;;5116471;27;20087;-87
2022/06/29 05:37:36;;;;;;;5.28;3.30;;;19.00;99.90;;;;;;5116345;27;20015;-87
2022/06/29 05:40:02;;;;;;;4.72;3.40;;;19.00;99.90;;;;;;5133325;27;20390;-86
2022/06/29 05:42:28;;;;;;;7.70;3.40;;;19.00;99.90;;;;;;5056190;28;20086;-87
2022/06/29 05:44:54;;;;;;;6.63;3.40;;;19.00;99.90;;;;;;5110886;27;20407;-87
2022/06/29 05:47:20;;;;;;;5.18;3.15;;;19.10;99.90;;;;;;5053757;28;20469;-87
2022/06/29 05:49:45;;;;;;;6.40;3.03;;;19.10;99.90;;;;;;5054314;27;20178;-90
2022/06/29 05:52:11;;;;;;;6.85;3.28;;;19.10;99.90;;;;;;5060826;27;20055;-89
2022/06/29 05:54:38;;;;;;;6.28;3.33;;;19.10;99.90;;;;;;5053225;28;20130;-89
2022/06/29 05:57:05;;;;;;;3.92;2.60;;;19.10;99.90;;;;;;5036546;28;20018;-90
2022/06/29 05:59:31;;;;;;;3.92;2.83;;;19.20;99.90;;;;;;5103102;27;20090;-90
2022/06/29 06:01:57;;;;;;;6.38;3.70;;;19.20;99.90;;;;;;5087536;27;20065;-91
2022/06/29 06:04:27;;;;;;;10.70;3.47;;;19.20;99.90;;;;;;5056296;28;20041;-90
2022/06/29 06:06:52;;;;;;;7.93;3.25;;;19.20;99.60;;;;;;5054896;28;20150;-90
2022/06/29 06:09:22;;;;;;;8.00;3.30;;;19.20;99.30;;;;;;5003969;28;20532;-90
2022/06/29 06:11:48;;;;;;;6.95;3.15;;;19.30;98.80;;;;;;5050903;27;20022;-89
2022/06/29 06:14:13;;;;;;;8.40;3.65;;;19.30;98.50;;;;;;5053876;27;20044;-90
2022/06/29 06:16:39;;;;;;;6.25;3.40;;;19.30;98.70;;;;;;5132242;27;20029;-89
2022/06/29 06:19:04;;;;;;;6.57;3.42;;;19.40;98.70;;;;;;5001759;27;20033;-92
2022/06/29 06:21:30;;;;;;;6.70;3.47;;;19.40;98.70;;;;;;5097248;28;20030;-90
2022/06/29 06:23:56;;;;;;;5.03;3.45;;;19.40;98.80;;;;;;5080332;28;20141;-90
2022/06/29 06:26:21;;;;;;;7.13;4.32;;;19.50;98.80;;;;;;5022984;28;20025;-91
2022/06/29 06:28:52;;;;;;;7.60;4.20;;;19.50;98.90;;;;;;5115214;27;20030;-91
2022/06/29 06:31:17;;;;;;;5.07;3.92;;;19.60;98.80;;;;;;5019325;28;20030;-91
2022/06/29 06:33:43;;;;;;;6.35;3.63;;;19.60;98.70;;;;;;5036390;28;20021;-89
2022/06/29 06:36:09;;;;;;;6.03;3.15;;;19.70;98.70;;;;;;5109203;27;20139;-91
2022/06/29 06:38:34;;;;;;;6.32;3.47;;;19.70;98.90;;;;;;5123173;27;20504;-91
2022/06/29 06:43:45;;;;;;;5.55;3.50;;;19.80;98.90;;;;;;5056906;28;20073;-91
2022/06/29 06:46:12;;;;;;;5.53;3.20;;;19.90;99.10;;;;;;5143621;27;20029;-89
2022/06/29 06:48:37;;;;;;;5.60;3.45;;;19.90;99.10;;;;;;5039258;28;20029;-91
2022/06/29 06:51:03;;;;;;;7.18;3.90;;;20.00;99.40;;;;;;5022248;28;20082;-93
2022/06/29 06:53:29;;;;;;;6.18;3.33;;;20.00;99.20;;;;;;5023637;28;20032;-91
2022/06/29 06:55:54;;;;;;;5.78;3.15;;;20.10;99.10;;;;;;5125359;27;20029;-92
2022/06/29 06:58:20;;;;;;;5.80;3.28;;;20.20;99.00;;;;;;5057200;28;20029;-92
2022/06/29 07:00:46;;;;;;;8.45;3.28;;;20.30;99.00;;;;;;5041691;27;20027;-92
2022/06/29 07:03:11;;;;;;;6.43;3.47;;;20.30;98.80;;;;;;5068287;28;20457;-92
2022/06/29 07:05:37;;;;;;;8.13;3.30;;;20.40;98.80;;;;;;5125772;27;20044;-92
2022/06/29 07:08:03;;;;;;;8.25;2.92;;;20.40;98.90;;;;;;5125507;27;20029;-91
2022/06/29 07:10:29;;;;;;;7.88;2.65;;;20.50;98.90;;;;;;5038747;28;20021;-92
2022/06/29 07:12:54;;;;;;;7.88;2.92;;;20.60;99.00;;;;;;5137697;27;20036;-93
2022/06/29 07:15:20;;;;;;;5.35;2.83;;;20.70;99.00;;;;;;5152431;27;20027;-94
2022/06/29 07:17:46;;;;;;;5.40;2.80;;;20.80;98.90;;;;;;5052733;27;20021;-93
2022/06/29 07:20:12;;;;;;;6.00;3.10;;;20.80;98.90;;;;;;5164818;27;20064;-92
2022/06/29 07:22:37;;;;;;;6.93;3.10;;;20.90;98.80;;;;;;5059009;27;20048;-92
2022/06/29 07:25:03;;;;;;;6.18;3.00;;;21.00;98.70;;;;;;5156060;27;20048;-92
2022/06/29 07:27:29;;;;;;;7.43;3.42;;;21.00;98.70;;;;;;5046434;28;20104;-92
2022/06/29 07:29:54;;;;;;;5.00;2.42;;;21.10;98.50;;;;;;5053349;28;20082;-91
2022/06/29 07:32:20;;;;;;;5.82;2.90;;;21.10;98.50;;;;;;5146689;27;20115;-89
2022/06/29 07:34:47;;;;;;;5.22;2.85;;;21.20;98.60;;;;;;5140410;27;20044;-94
2022/06/29 07:37:13;;;;;;;6.05;2.90;;;21.30;98.40;;;;;;5037318;28;20036;-91
2022/06/29 07:39:39;;;;;;;7.43;2.75;;;21.30;98.20;;;;;;5105987;27;20081;-90
2022/06/29 07:42:04;;;;;;;6.30;2.58;;;21.40;98.30;;;;;;5140800;27;20363;-90
2022/06/29 07:44:31;;;;;;;7.65;2.78;;;21.50;98.10;;;;;;5027226;27;20121;-91
2022/06/29 07:46:56;;;;;;;4.47;2.50;;;21.60;97.70;;;;;;5053879;27;20032;-93
2022/06/29 07:49:23;;;;;;;6.55;3.20;;;21.70;97.90;;;;;;5035708;27;20017;-91
2022/06/29 07:51:49;;;;;;;6.10;2.50;;;21.70;97.60;;;;;;5045909;27;20104;-89
2022/06/29 07:54:15;;;;;;;3.13;2.05;;;21.80;97.20;;;;;;5029727;27;20053;-89
2022/06/29 07:56:41;;;;;;;9.95;2.80;;;21.90;97.20;;;;;;5104414;28;20086;-91
2022/06/29 07:59:07;;;;;;;10.50;2.75;;;22.00;97.30;;;;;;5035164;28;20440;-91
2022/06/29 08:01:32;;;;;;;6.57;2.95;;;22.10;97.30;;;;;;5018289;28;20025;-91
2022/06/29 08:03:58;;;;;;;4.07;2.25;;;22.20;97.10;;;;;;5139186;27;20475;-92
2022/06/29 08:06:24;;;;;;;4.30;2.58;;;22.20;96.90;;;;;;5138995;27;20392;-91
2022/06/29 08:08:51;;;;;;;6.43;2.50;;;22.30;96.70;;;;;;5105965;27;20425;-90
2022/06/29 08:11:17;;;;;;;4.65;2.40;;;22.40;96.60;;;;;;5028896;28;20081;-92
2022/06/29 08:13:42;;;;;;;5.78;2.47;;;22.50;96.50;;;;;;5021320;28;20060;-92
2022/06/29 08:16:08;;;;;;;7.47;2.75;;;22.60;96.40;;;;;;5035015;28;20468;-93
2022/06/29 08:18:35;;;;;;;5.15;2.42;;;22.70;96.00;;;;;;5074855;27;20025;-91
2022/06/29 08:21:02;;;;;;;4.15;2.13;;;22.70;95.50;;;;;;5103625;27;20034;-91
2022/06/29 08:23:28;;;;;;;7.05;2.42;;;22.80;95.00;;;;;;5123418;27;20032;-89
2022/06/29 08:25:54;;;;;;;4.60;1.80;;;22.90;94.80;;;;;;5032192;28;20033;-92
2022/06/29 08:28:19;;;;;;;4.60;2.30;;;23.00;93.60;;;;;;5134827;27;20472;-92
2022/06/29 08:30:46;;;;;;;7.55;2.58;;;23.00;93.30;;;;;;5138558;27;20033;-93
2022/06/29 08:33:12;;;;;;;5.80;2.35;;;23.10;93.50;;;;;;5130593;27;20028;-82
2022/06/29 08:35:37;;;;;;;5.93;2.10;;;23.20;93.20;;;;;;5129014;27;20119;-81
2022/06/29 08:38:03;;;;;;;5.70;2.60;;;23.30;93.10;;;;;;5050914;27;20028;-82
2022/06/29 08:40:42;;;;;;;6.78;2.72;;;23.30;92.80;;;;;;5118809;27;20438;-82
2022/06/29 08:43:11;;;;;;;6.90;2.30;;;23.40;92.70;;;;;;5019015;28;20024;-83
2022/06/29 08:45:46;;;;;;;6.63;2.40;;;23.50;92.20;;;;;;5050741;27;20025;-83
2022/06/29 08:48:13;;;;;;;5.38;2.30;;;23.60;91.80;;;;;;5050195;27;20025;-82
2022/06/29 08:50:41;;;;;;;4.07;2.03;;;23.70;91.70;;;;;;5119645;27;20059;-82
2022/06/29 08:53:09;;;;;;;4.07;2.10;;;23.80;91.80;;;;;;5050479;27;20036;-82
2022/06/29 08:55:48;;;;;;;4.03;2.05;;;23.80;91.50;;;;;;5118002;27;20021;-82
2022/06/29 08:58:17;;;;;;;3.38;1.90;;;23.90;91.60;;;;;;5030942;27;20017;-83
2022/06/29 09:00:43;;;;;;;6.85;1.80;;;24.00;91.20;;;;;;5124422;27;20032;-82
2022/06/29 09:03:10;;;;;;;4.32;1.95;;;24.10;91.50;;;;;;5050005;27;20025;-82
2022/06/29 09:05:37;;;;;;;8.15;1.98;;;24.10;91.00;;;;;;5050896;27;20033;-82
2022/06/29 09:08:03;;;;;;;5.25;1.52;;;24.20;91.00;;;;;;5050412;27;20108;-82
2022/06/29 09:10:29;;;;;;;3.60;1.50;;;24.30;90.80;;;;;;5136159;27;20115;-82
2022/06/29 09:12:57;;;;;;;4.03;1.88;;;24.30;90.10;;;;;;5135656;27;20048;-80
2022/06/29 09:15:32;;;;;;;6.82;2.15;;;24.40;89.90;;;;;;5033291;27;20028;-83
2022/06/29 09:17:58;;;;;;;7.20;2.10;;;24.50;90.30;;;;;;5032368;28;20017;-83
2022/06/29 09:20:35;;;;;;;5.72;2.08;;;24.60;88.80;;;;;;5101356;27;20089;-82
2022/06/29 09:23:02;;;;;;;6.15;1.63;;;24.60;88.10;;;;;;5129655;27;20021;-82
2022/06/29 09:25:31;;;;;;;5.60;2.22;;;24.70;88.30;;;;;;5086601;27;20045;-81
2022/06/29 09:27:57;;;;;;;4.45;2.00;;;24.80;88.30;;;;;;5103725;27;20033;-83
2022/06/29 09:30:28;;;;;;;4.57;1.63;;;24.80;87.60;;;;;;5111585;27;20062;-81
2022/06/29 09:33:02;;;;;;;4.75;1.95;;;24.90;87.80;;;;;;5095261;27;20492;-80
2022/06/29 09:35:28;;;;;;;4.38;2.28;;;25.00;87.20;;;;;;5043526;27;20056;-81
2022/06/29 09:38:14;;;;;;;4.28;1.83;;;25.10;87.50;;;;;;5032146;28;20025;-80
2022/06/29 09:40:57;;;;;;;5.25;2.15;;;25.10;87.60;;;;;;5104092;27;20053;-86
2022/06/29 09:43:23;;;;;;;3.33;2.00;;;25.30;87.20;;;;;;5031470;28;20457;-81
2022/06/29 09:45:51;;;;;;;3.85;2.47;;;25.30;86.20;;;;;;5135706;27;20120;-80
2022/06/29 09:48:20;;;;;;;6.78;2.22;;;25.40;85.50;;;;;;5050216;27;20032;-80
2022/06/29 09:50:47;;;;;;;3.33;1.33;;;25.40;82.80;;;;;;5049705;27;20040;-79
2022/06/29 09:53:14;;;;;;;5.32;2.05;;;25.40;82.80;;;;;;5049778;27;20029;-80
2022/06/29 09:55:40;;;;;;;2.88;1.60;;;25.50;82.70;;;;;;5118632;27;20539;-79
2022/06/29 09:58:08;;;;;;;3.97;1.95;;;25.60;81.40;;;;;;5032723;28;20108;-91
2022/06/29 10:03:19;;;;;;;3.28;1.27;;;25.70;79.80;;;;;;5108267;27;20491;-89
2022/06/29 10:05:54;;;;;;;3.83;1.70;;;25.80;80.60;;;;;;5119094;27;20037;-89
2022/06/29 10:08:20;;;;;;;5.18;1.80;;;25.80;80.90;;;;;;5070214;27;20019;-89
2022/06/29 10:10:52;;;;;;;2.63;1.50;;;25.90;80.80;;;;;;5084549;28;20033;-88
2022/06/29 10:13:39;;;;;;;5.40;1.48;;;26.00;80.40;;;;;;5031983;27;20370;-89
2022/06/29 10:16:23;;;;;;;2.80;1.40;;;26.00;78.40;;;;;;5049948;27;20032;-88
2022/06/29 10:19:07;;;;;;;3.53;1.27;;;26.10;76.20;;;;;;5036690;27;20054;-89
2022/06/29 10:21:33;;;;;;;3.70;1.35;;;26.10;77.70;;;;;;5049698;27;20025;-88
2022/06/29 10:24:00;;;;;;;3.65;1.38;;;26.10;76.20;;;;;;5032463;28;20080;-89
2022/06/29 10:26:27;;;;;;;1.30;1.00;;;26.10;75.30;;;;;;5050020;27;20045;-88
2022/06/29 10:28:54;;;;;;;3.50;1.30;;;26.10;73.80;;;;;;5050079;27;20020;-88
2022/06/29 10:31:51;;;;;;;3.28;1.40;;;26.10;72.30;;;;;;5049925;27;20801;-85
2022/06/29 10:34:37;;;;;;;3.17;1.42;;;26.10;72.80;;;;;;5049130;27;20013;-85
2022/06/29 10:37:03;;;;;;;2.03;1.40;;;26.10;72.30;;;;;;5049468;27;20032;-85
2022/06/29 10:39:50;;;;;;;2.97;1.35;;;26.20;72.80;;;;;;5049298;27;20045;-85
2022/06/29 10:45:16;;;;;;;6.30;2.17;;;26.30;75.10;;;;;;5049141;28;20123;-85
2022/06/29 10:47:48;;;;;;;3.92;1.67;;;26.40;75.10;;;;;;5123297;27;20043;-85
2022/06/29 10:50:14;;;;;;;4.40;1.70;;;26.40;74.30;;;;;;5049457;27;20421;-85
2022/06/29 10:52:40;;;;;;;2.70;1.65;;;26.50;75.00;;;;;;5031421;27;20112;-87
2022/06/29 10:55:06;;;;;;;3.88;1.50;;;26.50;74.70;;;;;;5049363;27;20033;-84
2022/06/29 10:57:36;;;;;;;6.60;2.15;;;26.60;75.20;;;;;;5035261;28;20469;-84
2022/06/29 11:00:09;;;;;;;5.90;2.13;;;26.60;75.00;;;;;;5053867;28;20029;-84
2022/06/29 11:02:36;;;;;;;5.75;1.75;;;26.70;75.20;;;;;;5103429;28;20487;-85
2022/06/29 11:05:02;;;;;;;12.07;2.60;;;26.70;74.80;;;;;;5060326;28;20028;-84
2022/06/29 11:12:58;;;;;;;8.27;1.90;;;26.90;74.10;;;;;;5070125;27;20051;-92
2022/06/29 11:15:41;;;;;;;3.80;1.45;;;26.90;73.80;;;;;;5154463;27;20025;-89
2022/06/29 11:18:12;;;;;;;5.53;1.38;;;27.00;73.40;;;;;;5047775;27;20017;-91
2022/06/29 11:20:39;;;;;;;2.42;1.20;;;27.10;72.50;;;;;;5110133;27;20025;-92
2022/06/29 11:23:10;;;;;;;3.65;1.23;;;27.10;72.90;;;;;;5139664;27;20029;-91
2022/06/29 11:25:37;;;;;;;5.75;1.73;;;27.20;73.50;;;;;;5094492;28;20032;-91
2022/06/29 11:28:04;;;;;;;3.30;1.77;;;27.20;69.80;;;;;;5052989;27;20068;-88
2022/06/29 11:30:29;;;;;;;3.30;1.30;;;27.30;68.90;;;;;;5121969;27;20021;-87
2022/06/29 11:33:00;;;;;;;3.28;1.17;;;27.30;68.80;;;;;;5132765;27;20024;-94
2022/06/29 11:35:28;;;;;;;3.58;1.23;;;27.40;67.80;;;;;;5116205;27;20032;-91
2022/06/29 11:38:01;;;;;;;3.35;1.33;;;27.40;67.10;;;;;;5109678;27;20017;-92
2022/06/29 11:40:41;;;;;;;3.42;1.20;;;27.50;66.20;;;;;;5053391;28;20053;-95
2022/06/29 11:43:18;;;;;;;3.85;1.35;;;27.60;65.50;;;;;;5054897;27;20064;-93
2022/06/29 11:45:52;;;;;;;3.25;1.60;;;27.60;65.00;;;;;;5085330;27;20029;-92
2022/06/29 11:48:24;;;;;;;3.03;1.60;;;27.60;64.90;;;;;;5039936;27;20117;-93
2022/06/29 11:50:57;;;;;;;2.78;1.13;;;27.70;64.00;;;;;;5053203;27;20044;-91
2022/06/29 11:53:43;;;;;;;4.90;1.50;;;27.70;63.80;;;;;;5103930;27;20021;-93
2022/06/29 11:56:13;;;;;;;3.92;1.35;;;27.80;64.30;;;;;;5035522;28;20029;-92
2022/06/29 11:58:49;;;;;;;4.63;1.55;;;27.80;65.40;;;;;;5027668;28;20026;-92
2022/06/29 12:01:17;;;;;;;2.85;1.48;;;27.80;65.50;;;;;;5030787;27;20020;-91
2022/06/29 12:03:57;;;;;;;2.03;1.25;;;27.90;63.40;;;;;;5030438;28;20048;-92
2022/06/29 12:06:25;;;;;;;2.95;1.50;;;28.00;63.80;;;;;;5036011;28;20037;-92
2022/06/29 12:08:53;;;;;;;3.55;1.50;;;28.00;64.40;;;;;;5035516;28;20036;-95
2022/06/29 12:11:19;;;;;;;3.80;1.73;;;28.10;63.60;;;;;;5052206;28;20025;-94
2022/06/29 12:13:46;;;;;;;5.18;1.38;;;28.10;63.10;;;;;;5034801;28;20029;-93
2022/06/29 12:16:12;;;;;;;2.83;1.38;;;28.10;62.30;;;;;;5033365;27;20114;-87
2022/06/29 12:18:38;;;;;;;4.03;1.48;;;28.10;61.10;;;;;;5020056;27;20468;-86
2022/06/29 12:21:03;;;;;;;3.83;1.30;;;28.10;60.40;;;;;;5044264;28;20029;-85
2022/06/29 12:23:31;;;;;;;2.55;1.30;;;28.10;59.80;;;;;;5117254;27;20030;-85
2022/06/29 12:25:57;;;;;;;2.85;1.40;;;28.20;59.20;;;;;;5116867;27;20064;-84
2022/06/29 12:28:23;;;;;;;4.32;1.30;;;28.20;59.20;;;;;;5135847;27;20033;-84
2022/06/29 12:30:51;;;;;;;11.48;1.40;;;28.20;59.20;;;;;;5034047;28;20106;-89
2022/06/29 12:33:17;;;;;;;6.10;1.83;;;28.20;59.40;;;;;;5034902;28;20036;-93
2022/06/29 12:35:43;;;;;;;2.80;1.38;;;28.20;58.80;;;;;;5035441;28;20033;-87
2022/06/29 12:38:08;;;;;;;4.13;1.55;;;28.20;59.10;;;;;;5007965;28;20086;-86
2022/06/29 12:40:35;;;;;;;3.22;1.45;;;28.30;59.80;;;;;;5136636;27;20041;-86
2022/06/29 12:43:01;;;;;;;2.25;1.60;;;28.30;60.40;;;;;;5034072;28;20025;-90
2022/06/29 12:45:27;;;;;;;2.92;1.50;;;28.30;60.30;;;;;;5051634;28;20037;-88
2022/06/29 12:47:53;;;;;;;3.35;1.30;;;28.40;59.50;;;;;;5028652;28;20043;-88
2022/06/29 12:50:19;;;;;;;3.58;1.45;;;28.40;60.20;;;;;;5050606;28;20491;-82
2022/06/29 12:52:48;;;;;;;4.38;1.63;;;28.40;58.90;;;;;;5032758;28;20017;-82
2022/06/29 12:55:14;;;;;;;3.25;1.30;;;28.50;60.00;;;;;;5050883;28;20053;-82
2022/06/29 12:57:41;;;;;;;4.18;1.55;;;28.60;59.80;;;;;;5032883;28;20032;-80
2022/06/29 13:00:08;;;;;;;4.57;1.92;;;28.70;58.80;;;;;;5032770;28;20025;-81
2022/06/29 13:02:33;;;;;;;2.88;1.60;;;28.70;60.50;;;;;;5034408;28;20041;-81